sensor_id;sensor_type;location;lat;lon;timestamp;temperature;humidity
820;DHT22;392;48.838;2.322;2023-04-03T00:01:01;8.10;50.90
820;DHT22;392;48.838;2.322;2023-04-03T00:03:30;8.10;51.40
820;DHT22;392;48.838;2.322;2023-04-03T00:05:58;8.10;51.20
820;DHT22;392;48.838;2.322;2023-04-03T00:08:26;8.10;51.30
820;DHT22;392;48.838;2.322;2023-04-03T00:10:56;8.10;51.30
820;DHT22;392;48.838;2.322;2023-04-03T00:13:24;8.00;51.00
820;DHT22;392;48.838;2.322;2023-04-03T00:15:52;8.00;52.00
820;DHT22;392;48.838;2.322;2023-04-03T00:18:20;8.00;51.80
820;DHT22;392;48.838;2.322;2023-04-03T00:20:49;8.00;52.00
820;DHT22;392;48.838;2.322;2023-04-03T00:23:16;8.00;51.60
820;DHT22;392;48.838;2.322;2023-04-03T00:25:44;8.00;51.60
820;DHT22;392;48.838;2.322;2023-04-03T00:28:11;8.00;51.60
820;DHT22;392;48.838;2.322;2023-04-03T00:30:39;7.90;51.00
820;DHT22;392;48.838;2.322;2023-04-03T00:33:07;7.90;51.10
820;DHT22;392;48.838;2.322;2023-04-03T00:35:36;8.00;51.10
820;DHT22;392;48.838;2.322;2023-04-03T00:38:05;8.00;50.40
820;DHT22;392;48.838;2.322;2023-04-03T00:40:34;8.00;49.80
820;DHT22;392;48.838;2.322;2023-04-03T00:43:11;8.00;49.70
820;DHT22;392;48.838;2.322;2023-04-03T00:45:41;8.00;49.90
820;DHT22;392;48.838;2.322;2023-04-03T00:48:14;8.00;49.80
820;DHT22;392;48.838;2.322;2023-04-03T00:50:43;8.00;50.30
820;DHT22;392;48.838;2.322;2023-04-03T00:53:15;8.00;50.40
820;DHT22;392;48.838;2.322;2023-04-03T00:55:47;8.00;50.20
820;DHT22;392;48.838;2.322;2023-04-03T00:58:18;8.00;50.10
820;DHT22;392;48.838;2.322;2023-04-03T01:00:52;8.00;49.90
820;DHT22;392;48.838;2.322;2023-04-03T01:03:24;8.00;49.50
820;DHT22;392;48.838;2.322;2023-04-03T01:05:53;8.00;48.80
820;DHT22;392;48.838;2.322;2023-04-03T01:08:22;7.90;48.70
820;DHT22;392;48.838;2.322;2023-04-03T01:10:50;7.90;49.10
820;DHT22;392;48.838;2.322;2023-04-03T01:13:23;7.90;49.60
820;DHT22;392;48.838;2.322;2023-04-03T01:15:52;7.90;49.70
820;DHT22;392;48.838;2.322;2023-04-03T01:18:20;8.00;49.40
820;DHT22;392;48.838;2.322;2023-04-03T01:21:24;7.90;49.20
820;DHT22;392;48.838;2.322;2023-04-03T01:24:27;7.90;49.20
820;DHT22;392;48.838;2.322;2023-04-03T01:27:02;8.00;49.20
820;DHT22;392;48.838;2.322;2023-04-03T01:29:31;8.00;49.30
820;DHT22;392;48.838;2.322;2023-04-03T01:32:02;8.00;49.00
820;DHT22;392;48.838;2.322;2023-04-03T01:34:31;8.00;48.70
820;DHT22;392;48.838;2.322;2023-04-03T01:36:59;8.00;48.80
820;DHT22;392;48.838;2.322;2023-04-03T01:39:26;8.00;49.40
820;DHT22;392;48.838;2.322;2023-04-03T01:41:54;8.00;49.50
820;DHT22;392;48.838;2.322;2023-04-03T01:44:28;8.00;49.30
820;DHT22;392;48.838;2.322;2023-04-03T01:46:55;8.10;49.40
820;DHT22;392;48.838;2.322;2023-04-03T01:49:26;8.10;49.70
820;DHT22;392;48.838;2.322;2023-04-03T01:51:54;8.00;49.90
820;DHT22;392;48.838;2.322;2023-04-03T01:54:22;8.00;50.40
820;DHT22;392;48.838;2.322;2023-04-03T01:56:50;7.90;51.10
820;DHT22;392;48.838;2.322;2023-04-03T01:59:19;7.90;51.90
820;DHT22;392;48.838;2.322;2023-04-03T02:01:47;7.90;52.00
820;DHT22;392;48.838;2.322;2023-04-03T02:04:14;7.80;52.30
820;DHT22;392;48.838;2.322;2023-04-03T02:06:43;7.70;52.60
820;DHT22;392;48.838;2.322;2023-04-03T02:09:10;7.70;53.30
820;DHT22;392;48.838;2.322;2023-04-03T02:11:38;7.60;53.50
820;DHT22;392;48.838;2.322;2023-04-03T02:14:05;7.60;53.70
820;DHT22;392;48.838;2.322;2023-04-03T02:16:33;7.60;54.00
820;DHT22;392;48.838;2.322;2023-04-03T02:19:01;7.60;54.10
820;DHT22;392;48.838;2.322;2023-04-03T02:21:30;7.50;54.00
820;DHT22;392;48.838;2.322;2023-04-03T02:23:58;7.50;54.20
820;DHT22;392;48.838;2.322;2023-04-03T02:26:27;7.50;54.00
820;DHT22;392;48.838;2.322;2023-04-03T02:28:54;7.60;53.60
820;DHT22;392;48.838;2.322;2023-04-03T02:31:22;7.50;53.00
820;DHT22;392;48.838;2.322;2023-04-03T02:33:50;7.50;52.30
820;DHT22;392;48.838;2.322;2023-04-03T02:36:18;7.50;52.30
820;DHT22;392;48.838;2.322;2023-04-03T02:38:51;7.50;52.40
820;DHT22;392;48.838;2.322;2023-04-03T02:41:20;7.50;52.20
820;DHT22;392;48.838;2.322;2023-04-03T02:43:49;7.50;51.60
820;DHT22;392;48.838;2.322;2023-04-03T02:46:16;7.60;51.20
820;DHT22;392;48.838;2.322;2023-04-03T02:48:43;7.60;51.00
820;DHT22;392;48.838;2.322;2023-04-03T02:51:11;7.60;50.90
820;DHT22;392;48.838;2.322;2023-04-03T02:53:38;7.60;50.70
820;DHT22;392;48.838;2.322;2023-04-03T02:56:11;7.70;50.50
820;DHT22;392;48.838;2.322;2023-04-03T02:58:40;7.70;50.10
820;DHT22;392;48.838;2.322;2023-04-03T03:01:09;7.70;50.00
820;DHT22;392;48.838;2.322;2023-04-03T03:03:37;7.60;50.70
820;DHT22;392;48.838;2.322;2023-04-03T03:06:07;7.70;50.50
820;DHT22;392;48.838;2.322;2023-04-03T03:08:36;7.70;50.10
820;DHT22;392;48.838;2.322;2023-04-03T03:11:04;7.70;49.10
820;DHT22;392;48.838;2.322;2023-04-03T03:13:32;7.70;48.90
820;DHT22;392;48.838;2.322;2023-04-03T03:16:02;7.60;49.10
820;DHT22;392;48.838;2.322;2023-04-03T03:18:29;7.70;49.60
820;DHT22;392;48.838;2.322;2023-04-03T03:20:59;7.70;49.50
820;DHT22;392;48.838;2.322;2023-04-03T03:23:29;7.70;49.30
820;DHT22;392;48.838;2.322;2023-04-03T03:25:59;7.70;49.20
820;DHT22;392;48.838;2.322;2023-04-03T03:28:27;7.70;48.80
820;DHT22;392;48.838;2.322;2023-04-03T03:30:55;7.70;48.40
820;DHT22;392;48.838;2.322;2023-04-03T03:33:25;7.60;48.70
820;DHT22;392;48.838;2.322;2023-04-03T03:35:53;7.70;49.20
820;DHT22;392;48.838;2.322;2023-04-03T03:38:22;7.60;49.00
820;DHT22;392;48.838;2.322;2023-04-03T03:40:50;7.70;48.90
820;DHT22;392;48.838;2.322;2023-04-03T03:43:19;7.70;48.70
820;DHT22;392;48.838;2.322;2023-04-03T03:45:50;7.60;48.30
820;DHT22;392;48.838;2.322;2023-04-03T03:48:18;7.60;48.10
820;DHT22;392;48.838;2.322;2023-04-03T03:50:48;7.60;47.70
820;DHT22;392;48.838;2.322;2023-04-03T03:53:18;7.60;47.70
820;DHT22;392;48.838;2.322;2023-04-03T03:55:46;7.60;46.60
820;DHT22;392;48.838;2.322;2023-04-03T03:58:13;7.60;46.50
820;DHT22;392;48.838;2.322;2023-04-03T04:00:41;7.60;46.30
820;DHT22;392;48.838;2.322;2023-04-03T04:03:09;7.60;46.40
820;DHT22;392;48.838;2.322;2023-04-03T04:05:36;7.50;45.70
820;DHT22;392;48.838;2.322;2023-04-03T04:08:05;7.50;45.40
820;DHT22;392;48.838;2.322;2023-04-03T04:10:33;7.50;44.90
820;DHT22;392;48.838;2.322;2023-04-03T04:13:01;7.50;44.70
820;DHT22;392;48.838;2.322;2023-04-03T04:15:29;7.40;44.80
820;DHT22;392;48.838;2.322;2023-04-03T04:17:57;7.40;45.00
820;DHT22;392;48.838;2.322;2023-04-03T04:20:25;7.40;45.40
820;DHT22;392;48.838;2.322;2023-04-03T04:22:53;7.50;45.50
820;DHT22;392;48.838;2.322;2023-04-03T04:25:23;7.60;44.90
820;DHT22;392;48.838;2.322;2023-04-03T04:27:50;7.60;43.60
820;DHT22;392;48.838;2.322;2023-04-03T04:30:18;7.60;42.60
820;DHT22;392;48.838;2.322;2023-04-03T04:32:48;7.70;41.50
820;DHT22;392;48.838;2.322;2023-04-03T04:35:15;7.70;41.00
820;DHT22;392;48.838;2.322;2023-04-03T04:37:46;7.60;40.70
820;DHT22;392;48.838;2.322;2023-04-03T04:40:14;7.60;40.10
820;DHT22;392;48.838;2.322;2023-04-03T04:42:43;7.60;39.70
820;DHT22;392;48.838;2.322;2023-04-03T04:45:10;7.50;38.90
820;DHT22;392;48.838;2.322;2023-04-03T04:47:40;7.50;38.70
820;DHT22;392;48.838;2.322;2023-04-03T04:50:09;7.40;38.60
820;DHT22;392;48.838;2.322;2023-04-03T04:52:37;7.40;38.60
820;DHT22;392;48.838;2.322;2023-04-03T04:55:06;7.40;38.20
820;DHT22;392;48.838;2.322;2023-04-03T04:57:34;7.40;38.00
820;DHT22;392;48.838;2.322;2023-04-03T05:00:05;7.30;37.40
820;DHT22;392;48.838;2.322;2023-04-03T05:02:34;7.20;36.90
820;DHT22;392;48.838;2.322;2023-04-03T05:05:01;7.20;37.10
820;DHT22;392;48.838;2.322;2023-04-03T05:07:29;7.20;37.50
820;DHT22;392;48.838;2.322;2023-04-03T05:09:58;7.20;37.10
820;DHT22;392;48.838;2.322;2023-04-03T05:12:27;7.30;37.10
820;DHT22;392;48.838;2.322;2023-04-03T05:14:58;7.20;36.10
820;DHT22;392;48.838;2.322;2023-04-03T05:17:29;7.20;36.30
820;DHT22;392;48.838;2.322;2023-04-03T05:19:57;7.30;36.20
820;DHT22;392;48.838;2.322;2023-04-03T05:22:26;7.30;35.90
820;DHT22;392;48.838;2.322;2023-04-03T05:24:58;7.30;35.60
820;DHT22;392;48.838;2.322;2023-04-03T05:27:26;7.40;35.10
820;DHT22;392;48.838;2.322;2023-04-03T05:29:56;7.40;34.50
820;DHT22;392;48.838;2.322;2023-04-03T05:32:25;7.40;34.00
820;DHT22;392;48.838;2.322;2023-04-03T05:35:05;7.40;33.70
820;DHT22;392;48.838;2.322;2023-04-03T05:37:33;7.40;33.00
820;DHT22;392;48.838;2.322;2023-04-03T05:40:01;7.40;32.90
820;DHT22;392;48.838;2.322;2023-04-03T05:42:30;7.40;33.00
820;DHT22;392;48.838;2.322;2023-04-03T05:44:58;7.40;33.50
820;DHT22;392;48.838;2.322;2023-04-03T05:47:26;7.30;32.90
820;DHT22;392;48.838;2.322;2023-04-03T05:49:53;7.30;32.60
820;DHT22;392;48.838;2.322;2023-04-03T05:52:25;7.30;32.20
820;DHT22;392;48.838;2.322;2023-04-03T05:54:54;7.20;31.90
820;DHT22;392;48.838;2.322;2023-04-03T05:57:25;7.20;32.00
820;DHT22;392;48.838;2.322;2023-04-03T05:59:53;7.10;31.90
820;DHT22;392;48.838;2.322;2023-04-03T06:02:23;7.00;32.20
820;DHT22;392;48.838;2.322;2023-04-03T06:04:52;6.90;33.10
820;DHT22;392;48.838;2.322;2023-04-03T06:07:21;6.90;32.60
820;DHT22;392;48.838;2.322;2023-04-03T06:09:52;7.00;32.80
820;DHT22;392;48.838;2.322;2023-04-03T06:12:22;7.00;32.80
820;DHT22;392;48.838;2.322;2023-04-03T06:14:49;7.00;32.50
820;DHT22;392;48.838;2.322;2023-04-03T06:17:17;7.10;32.40
820;DHT22;392;48.838;2.322;2023-04-03T06:19:45;7.00;32.00
820;DHT22;392;48.838;2.322;2023-04-03T06:22:13;7.10;32.10
820;DHT22;392;48.838;2.322;2023-04-03T06:24:42;7.00;32.30
820;DHT22;392;48.838;2.322;2023-04-03T06:27:11;7.00;31.90
820;DHT22;392;48.838;2.322;2023-04-03T06:29:39;6.90;32.30
820;DHT22;392;48.838;2.322;2023-04-03T06:32:06;7.00;32.40
820;DHT22;392;48.838;2.322;2023-04-03T06:34:34;7.00;32.30
820;DHT22;392;48.838;2.322;2023-04-03T06:37:01;7.00;32.30
820;DHT22;392;48.838;2.322;2023-04-03T06:39:29;7.00;32.30
820;DHT22;392;48.838;2.322;2023-04-03T06:41:57;7.00;32.20
820;DHT22;392;48.838;2.322;2023-04-03T06:44:29;7.00;32.30
820;DHT22;392;48.838;2.322;2023-04-03T06:46:56;7.10;32.40
820;DHT22;392;48.838;2.322;2023-04-03T06:49:24;7.20;32.30
820;DHT22;392;48.838;2.322;2023-04-03T06:51:51;7.20;31.60
820;DHT22;392;48.838;2.322;2023-04-03T06:54:21;7.30;31.50
820;DHT22;392;48.838;2.322;2023-04-03T06:56:50;7.30;31.40
820;DHT22;392;48.838;2.322;2023-04-03T06:59:18;7.40;31.10
820;DHT22;392;48.838;2.322;2023-04-03T07:01:46;7.30;30.80
820;DHT22;392;48.838;2.322;2023-04-03T07:04:13;7.30;31.10
820;DHT22;392;48.838;2.322;2023-04-03T07:06:40;7.30;31.30
820;DHT22;392;48.838;2.322;2023-04-03T07:09:08;7.30;31.30
820;DHT22;392;48.838;2.322;2023-04-03T07:11:36;7.30;31.30
820;DHT22;392;48.838;2.322;2023-04-03T07:14:04;7.30;31.10
820;DHT22;392;48.838;2.322;2023-04-03T07:16:34;7.40;31.10
820;DHT22;392;48.838;2.322;2023-04-03T07:19:02;7.50;30.90
820;DHT22;392;48.838;2.322;2023-04-03T07:21:30;7.60;30.50
820;DHT22;392;48.838;2.322;2023-04-03T07:23:57;7.60;30.00
820;DHT22;392;48.838;2.322;2023-04-03T07:26:24;7.60;30.30
820;DHT22;392;48.838;2.322;2023-04-03T07:28:52;7.70;30.20
820;DHT22;392;48.838;2.322;2023-04-03T07:31:19;7.80;30.20
820;DHT22;392;48.838;2.322;2023-04-03T07:33:48;7.80;29.70
820;DHT22;392;48.838;2.322;2023-04-03T07:36:17;7.80;29.90
820;DHT22;392;48.838;2.322;2023-04-03T07:38:46;7.90;30.10
820;DHT22;392;48.838;2.322;2023-04-03T07:41:15;8.00;30.00
820;DHT22;392;48.838;2.322;2023-04-03T07:43:44;8.10;29.50
820;DHT22;392;48.838;2.322;2023-04-03T07:46:12;8.10;28.80
820;DHT22;392;48.838;2.322;2023-04-03T07:48:39;8.10;29.10
820;DHT22;392;48.838;2.322;2023-04-03T07:51:09;8.10;29.00
820;DHT22;392;48.838;2.322;2023-04-03T07:53:36;8.10;29.10
820;DHT22;392;48.838;2.322;2023-04-03T07:56:04;8.00;29.30
820;DHT22;392;48.838;2.322;2023-04-03T07:58:31;8.00;29.20
820;DHT22;392;48.838;2.322;2023-04-03T08:00:59;8.00;29.30
820;DHT22;392;48.838;2.322;2023-04-03T08:03:27;8.10;29.50
820;DHT22;392;48.838;2.322;2023-04-03T08:05:54;8.20;29.50
820;DHT22;392;48.838;2.322;2023-04-03T08:08:23;8.30;28.80
820;DHT22;392;48.838;2.322;2023-04-03T08:10:51;8.30;28.80
820;DHT22;392;48.838;2.322;2023-04-03T08:13:21;8.40;28.80
820;DHT22;392;48.838;2.322;2023-04-03T08:15:48;8.60;28.30
820;DHT22;392;48.838;2.322;2023-04-03T08:18:17;8.60;28.00
820;DHT22;392;48.838;2.322;2023-04-03T08:20:47;8.70;27.50
820;DHT22;392;48.838;2.322;2023-04-03T08:23:14;8.80;27.90
820;DHT22;392;48.838;2.322;2023-04-03T08:25:44;8.80;27.00
820;DHT22;392;48.838;2.322;2023-04-03T08:28:12;8.90;26.50
820;DHT22;392;48.838;2.322;2023-04-03T08:30:40;8.90;25.70
820;DHT22;392;48.838;2.322;2023-04-03T08:33:08;8.90;24.80
820;DHT22;392;48.838;2.322;2023-04-03T08:35:38;9.00;24.60
820;DHT22;392;48.838;2.322;2023-04-03T08:38:07;9.00;25.00
820;DHT22;392;48.838;2.322;2023-04-03T08:40:34;9.00;24.00
820;DHT22;392;48.838;2.322;2023-04-03T08:43:19;9.00;24.10
820;DHT22;392;48.838;2.322;2023-04-03T08:45:55;8.90;23.80
820;DHT22;392;48.838;2.322;2023-04-03T08:48:27;8.80;24.20
820;DHT22;392;48.838;2.322;2023-04-03T08:51:00;8.80;24.20
820;DHT22;392;48.838;2.322;2023-04-03T08:53:33;8.80;24.30
820;DHT22;392;48.838;2.322;2023-04-03T08:56:04;8.90;24.80
820;DHT22;392;48.838;2.322;2023-04-03T08:58:41;9.10;24.20
820;DHT22;392;48.838;2.322;2023-04-03T09:01:18;9.40;23.90
820;DHT22;392;48.838;2.322;2023-04-03T09:03:47;9.60;23.60
820;DHT22;392;48.838;2.322;2023-04-03T09:06:16;10.10;21.10
820;DHT22;392;48.838;2.322;2023-04-03T09:08:51;10.50;20.00
820;DHT22;392;48.838;2.322;2023-04-03T09:11:23;10.60;19.40
820;DHT22;392;48.838;2.322;2023-04-03T09:13:59;10.30;19.70
820;DHT22;392;48.838;2.322;2023-04-03T09:16:36;9.90;20.90
820;DHT22;392;48.838;2.322;2023-04-03T09:19:26;9.70;21.70
820;DHT22;392;48.838;2.322;2023-04-03T09:22:09;9.50;22.10
820;DHT22;392;48.838;2.322;2023-04-03T09:24:41;9.60;22.90
820;DHT22;392;48.838;2.322;2023-04-03T09:27:10;10.60;21.00
820;DHT22;392;48.838;2.322;2023-04-03T09:29:41;11.50;18.30
820;DHT22;392;48.838;2.322;2023-04-03T09:32:21;11.80;18.20
820;DHT22;392;48.838;2.322;2023-04-03T09:34:51;12.30;16.30
820;DHT22;392;48.838;2.322;2023-04-03T09:37:40;12.00;16.50
820;DHT22;392;48.838;2.322;2023-04-03T09:40:30;11.60;17.30
820;DHT22;392;48.838;2.322;2023-04-03T09:43:23;11.20;17.80
820;DHT22;392;48.838;2.322;2023-04-03T09:45:54;11.10;18.30
820;DHT22;392;48.838;2.322;2023-04-03T09:48:23;10.90;18.80
820;DHT22;392;48.838;2.322;2023-04-03T09:50:59;10.70;19.10
820;DHT22;392;48.838;2.322;2023-04-03T09:53:34;10.70;18.60
820;DHT22;392;48.838;2.322;2023-04-03T09:56:19;10.60;18.60
820;DHT22;392;48.838;2.322;2023-04-03T09:58:49;10.50;19.60
820;DHT22;392;48.838;2.322;2023-04-03T10:01:25;10.80;19.40
820;DHT22;392;48.838;2.322;2023-04-03T10:04:09;11.50;18.30
820;DHT22;392;48.838;2.322;2023-04-03T10:06:39;12.70;16.20
820;DHT22;392;48.838;2.322;2023-04-03T10:09:19;13.30;15.10
820;DHT22;392;48.838;2.322;2023-04-03T10:12:01;13.20;14.70
820;DHT22;392;48.838;2.322;2023-04-03T10:14:31;13.00;15.50
820;DHT22;392;48.838;2.322;2023-04-03T10:17:05;13.20;14.50
820;DHT22;392;48.838;2.322;2023-04-03T10:19:42;13.20;14.90
820;DHT22;392;48.838;2.322;2023-04-03T10:22:16;13.70;13.70
820;DHT22;392;48.838;2.322;2023-04-03T10:25:01;14.60;12.10
820;DHT22;392;48.838;2.322;2023-04-03T10:27:44;15.90;10.10
820;DHT22;392;48.838;2.322;2023-04-03T10:30:25;16.70;9.30
820;DHT22;392;48.838;2.322;2023-04-03T10:33:09;17.50;8.20
820;DHT22;392;48.838;2.322;2023-04-03T10:35:49;18.40;7.40
820;DHT22;392;48.838;2.322;2023-04-03T10:38:31;19.60;5.50
820;DHT22;392;48.838;2.322;2023-04-03T10:41:04;20.30;4.10
820;DHT22;392;48.838;2.322;2023-04-03T10:43:42;20.50;3.60
820;DHT22;392;48.838;2.322;2023-04-03T10:46:14;20.90;2.30
820;DHT22;392;48.838;2.322;2023-04-03T10:49:05;21.00;2.30
820;DHT22;392;48.838;2.322;2023-04-03T10:51:43;20.90;2.00
820;DHT22;392;48.838;2.322;2023-04-03T10:54:13;20.80;1.90
820;DHT22;392;48.838;2.322;2023-04-03T10:56:48;20.90;2.00
820;DHT22;392;48.838;2.322;2023-04-03T10:59:23;21.30;1.60
820;DHT22;392;48.838;2.322;2023-04-03T11:01:55;21.60;1.10
820;DHT22;392;48.838;2.322;2023-04-03T11:04:27;21.90;1.00
820;DHT22;392;48.838;2.322;2023-04-03T11:07:00;22.40;1.00
820;DHT22;392;48.838;2.322;2023-04-03T11:09:33;22.60;1.00
820;DHT22;392;48.838;2.322;2023-04-03T11:12:06;22.70;1.00
820;DHT22;392;48.838;2.322;2023-04-03T11:14:38;23.10;1.00
820;DHT22;392;48.838;2.322;2023-04-03T11:17:15;22.90;1.00
820;DHT22;392;48.838;2.322;2023-04-03T11:19:57;22.30;1.00
820;DHT22;392;48.838;2.322;2023-04-03T11:22:33;22.40;1.00
820;DHT22;392;48.838;2.322;2023-04-03T11:25:14;22.20;1.00
820;DHT22;392;48.838;2.322;2023-04-03T11:27:51;22.70;1.00
820;DHT22;392;48.838;2.322;2023-04-03T11:30:24;23.10;1.00
820;DHT22;392;48.838;2.322;2023-04-03T11:33:10;23.40;1.00
820;DHT22;392;48.838;2.322;2023-04-03T11:35:52;23.70;1.00
820;DHT22;392;48.838;2.322;2023-04-03T11:38:25;23.80;1.00
820;DHT22;392;48.838;2.322;2023-04-03T11:40:55;23.60;1.00
820;DHT22;392;48.838;2.322;2023-04-03T11:43:25;23.60;1.00
820;DHT22;392;48.838;2.322;2023-04-03T11:45:56;23.50;1.00
820;DHT22;392;48.838;2.322;2023-04-03T11:48:44;23.30;1.00
820;DHT22;392;48.838;2.322;2023-04-03T11:51:40;23.00;1.00
820;DHT22;392;48.838;2.322;2023-04-03T11:54:42;22.90;1.00
820;DHT22;392;48.838;2.322;2023-04-03T11:57:46;23.00;1.00
820;DHT22;392;48.838;2.322;2023-04-03T12:00:54;23.30;1.00
820;DHT22;392;48.838;2.322;2023-04-03T12:04:06;23.00;1.00
820;DHT22;392;48.838;2.322;2023-04-03T12:07:02;22.70;1.00
820;DHT22;392;48.838;2.322;2023-04-03T12:10:01;22.90;1.00
820;DHT22;392;48.838;2.322;2023-04-03T12:12:41;22.90;1.00
820;DHT22;392;48.838;2.322;2023-04-03T12:15:24;22.90;1.00
820;DHT22;392;48.838;2.322;2023-04-03T12:21:12;22.10;1.00
820;DHT22;392;48.838;2.322;2023-04-03T12:24:00;22.50;1.00
820;DHT22;392;48.838;2.322;2023-04-03T12:26:34;22.50;1.00
820;DHT22;392;48.838;2.322;2023-04-03T12:29:15;22.30;1.00
820;DHT22;392;48.838;2.322;2023-04-03T12:31:52;22.50;1.00
820;DHT22;392;48.838;2.322;2023-04-03T12:34:38;22.90;1.00
820;DHT22;392;48.838;2.322;2023-04-03T12:37:23;22.90;1.00
820;DHT22;392;48.838;2.322;2023-04-03T12:40:10;23.30;1.00
820;DHT22;392;48.838;2.322;2023-04-03T12:45:52;23.50;1.00
820;DHT22;392;48.838;2.322;2023-04-03T12:48:27;22.90;1.00
820;DHT22;392;48.838;2.322;2023-04-03T12:50:57;22.40;1.00
820;DHT22;392;48.838;2.322;2023-04-03T12:53:27;22.10;1.00
820;DHT22;392;48.838;2.322;2023-04-03T12:56:18;21.80;1.00
820;DHT22;392;48.838;2.322;2023-04-03T12:58:47;21.40;1.00
820;DHT22;392;48.838;2.322;2023-04-03T13:01:18;20.80;1.00
820;DHT22;392;48.838;2.322;2023-04-03T13:03:49;20.40;1.00
820;DHT22;392;48.838;2.322;2023-04-03T13:06:21;20.30;1.00
820;DHT22;392;48.838;2.322;2023-04-03T13:08:51;20.30;1.00
820;DHT22;392;48.838;2.322;2023-04-03T13:11:21;20.80;1.00
820;DHT22;392;48.838;2.322;2023-04-03T13:13:57;20.80;1.00
820;DHT22;392;48.838;2.322;2023-04-03T13:16:26;20.60;1.00
820;DHT22;392;48.838;2.322;2023-04-03T13:18:54;20.70;1.00
820;DHT22;392;48.838;2.322;2023-04-03T13:21:24;20.30;1.00
820;DHT22;392;48.838;2.322;2023-04-03T13:23:55;20.00;1.00
820;DHT22;392;48.838;2.322;2023-04-03T13:26:27;19.80;1.00
820;DHT22;392;48.838;2.322;2023-04-03T13:28:59;19.70;1.00
820;DHT22;392;48.838;2.322;2023-04-03T13:31:30;19.50;1.00
820;DHT22;392;48.838;2.322;2023-04-03T13:34:03;19.40;1.00
820;DHT22;392;48.838;2.322;2023-04-03T13:36:35;19.00;1.00
820;DHT22;392;48.838;2.322;2023-04-03T13:39:06;18.70;1.00
820;DHT22;392;48.838;2.322;2023-04-03T13:41:47;18.70;1.00
820;DHT22;392;48.838;2.322;2023-04-03T13:44:29;18.70;1.00
820;DHT22;392;48.838;2.322;2023-04-03T13:47:00;18.60;1.00
820;DHT22;392;48.838;2.322;2023-04-03T13:49:32;18.50;1.30
820;DHT22;392;48.838;2.322;2023-04-03T13:52:17;18.60;1.30
820;DHT22;392;48.838;2.322;2023-04-03T13:54:52;18.50;1.40
820;DHT22;392;48.838;2.322;2023-04-03T13:57:22;18.50;1.30
820;DHT22;392;48.838;2.322;2023-04-03T13:59:50;18.40;1.60
820;DHT22;392;48.838;2.322;2023-04-03T14:02:20;18.00;1.60
820;DHT22;392;48.838;2.322;2023-04-03T14:04:54;17.40;2.50
820;DHT22;392;48.838;2.322;2023-04-03T14:07:26;17.00;2.80
820;DHT22;392;48.838;2.322;2023-04-03T14:09:54;16.70;3.00
820;DHT22;392;48.838;2.322;2023-04-03T14:12:26;16.40;3.30
820;DHT22;392;48.838;2.322;2023-04-03T14:14:55;16.40;3.60
820;DHT22;392;48.838;2.322;2023-04-03T14:17:25;16.10;3.80
820;DHT22;392;48.838;2.322;2023-04-03T14:19:54;15.70;4.40
820;DHT22;392;48.838;2.322;2023-04-03T14:22:25;15.50;4.70
820;DHT22;392;48.838;2.322;2023-04-03T14:24:54;15.30;5.00
820;DHT22;392;48.838;2.322;2023-04-03T14:27:25;15.10;5.40
820;DHT22;392;48.838;2.322;2023-04-03T14:29:55;15.00;5.70
820;DHT22;392;48.838;2.322;2023-04-03T14:32:24;14.90;5.10
820;DHT22;392;48.838;2.322;2023-04-03T14:34:52;14.80;5.70
820;DHT22;392;48.838;2.322;2023-04-03T14:37:23;14.70;6.10
820;DHT22;392;48.838;2.322;2023-04-03T14:39:52;14.60;5.60
820;DHT22;392;48.838;2.322;2023-04-03T14:42:24;14.60;5.90
820;DHT22;392;48.838;2.322;2023-04-03T14:44:52;14.40;7.00
820;DHT22;392;48.838;2.322;2023-04-03T14:47:22;14.20;6.80
820;DHT22;392;48.838;2.322;2023-04-03T14:49:52;14.20;6.50
820;DHT22;392;48.838;2.322;2023-04-03T14:52:21;14.00;7.00
820;DHT22;392;48.838;2.322;2023-04-03T14:54:51;13.90;6.90
820;DHT22;392;48.838;2.322;2023-04-03T14:57:19;13.80;7.30
820;DHT22;392;48.838;2.322;2023-04-03T14:59:51;13.60;7.50
820;DHT22;392;48.838;2.322;2023-04-03T15:02:26;13.60;8.10
820;DHT22;392;48.838;2.322;2023-04-03T15:04:55;13.40;9.00
820;DHT22;392;48.838;2.322;2023-04-03T15:07:25;13.20;8.20
820;DHT22;392;48.838;2.322;2023-04-03T15:09:54;13.20;8.50
820;DHT22;392;48.838;2.322;2023-04-03T15:12:24;13.20;8.10
820;DHT22;392;48.838;2.322;2023-04-03T15:14:52;13.20;7.80
820;DHT22;392;48.838;2.322;2023-04-03T15:17:21;13.30;7.40
820;DHT22;392;48.838;2.322;2023-04-03T15:19:49;13.30;7.50
820;DHT22;392;48.838;2.322;2023-04-03T15:22:18;13.20;7.40
820;DHT22;392;48.838;2.322;2023-04-03T15:24:46;13.20;7.80
820;DHT22;392;48.838;2.322;2023-04-03T15:27:14;13.10;8.10
820;DHT22;392;48.838;2.322;2023-04-03T15:29:43;13.00;8.10
820;DHT22;392;48.838;2.322;2023-04-03T15:32:12;13.00;8.20
820;DHT22;392;48.838;2.322;2023-04-03T15:34:40;13.00;8.80
820;DHT22;392;48.838;2.322;2023-04-03T15:37:07;13.00;9.00
820;DHT22;392;48.838;2.322;2023-04-03T15:39:34;13.10;8.90
820;DHT22;392;48.838;2.322;2023-04-03T15:42:02;13.00;7.20
820;DHT22;392;48.838;2.322;2023-04-03T15:44:32;13.00;7.50
820;DHT22;392;48.838;2.322;2023-04-03T15:47:02;13.10;7.90
820;DHT22;392;48.838;2.322;2023-04-03T15:49:30;13.10;8.00
820;DHT22;392;48.838;2.322;2023-04-03T15:51:57;13.20;8.40
820;DHT22;392;48.838;2.322;2023-04-03T15:54:25;13.10;8.50
820;DHT22;392;48.838;2.322;2023-04-03T15:56:53;13.10;8.60
820;DHT22;392;48.838;2.322;2023-04-03T15:59:21;13.10;8.50
820;DHT22;392;48.838;2.322;2023-04-03T16:01:49;13.10;8.60
820;DHT22;392;48.838;2.322;2023-04-03T16:04:18;13.20;8.40
820;DHT22;392;48.838;2.322;2023-04-03T16:06:46;13.20;8.40
820;DHT22;392;48.838;2.322;2023-04-03T16:09:14;13.30;8.00
820;DHT22;392;48.838;2.322;2023-04-03T16:11:41;13.30;8.30
820;DHT22;392;48.838;2.322;2023-04-03T16:14:09;13.20;8.60
820;DHT22;392;48.838;2.322;2023-04-03T16:16:37;13.10;8.90
820;DHT22;392;48.838;2.322;2023-04-03T16:19:05;13.10;9.00
820;DHT22;392;48.838;2.322;2023-04-03T16:21:33;13.10;9.00
820;DHT22;392;48.838;2.322;2023-04-03T16:24:01;13.10;9.50
820;DHT22;392;48.838;2.322;2023-04-03T16:26:29;13.10;9.80
820;DHT22;392;48.838;2.322;2023-04-03T16:28:56;13.10;9.60
820;DHT22;392;48.838;2.322;2023-04-03T16:31:24;13.20;9.60
820;DHT22;392;48.838;2.322;2023-04-03T16:33:52;13.20;9.30
820;DHT22;392;48.838;2.322;2023-04-03T16:36:19;13.20;9.20
820;DHT22;392;48.838;2.322;2023-04-03T16:38:47;13.30;9.30
820;DHT22;392;48.838;2.322;2023-04-03T16:41:15;13.30;9.30
820;DHT22;392;48.838;2.322;2023-04-03T16:43:42;13.20;9.60
820;DHT22;392;48.838;2.322;2023-04-03T16:46:09;13.20;9.70
820;DHT22;392;48.838;2.322;2023-04-03T16:48:36;13.10;9.80
820;DHT22;392;48.838;2.322;2023-04-03T16:51:04;13.10;9.70
820;DHT22;392;48.838;2.322;2023-04-03T16:53:31;13.10;9.90
820;DHT22;392;48.838;2.322;2023-04-03T16:56:00;13.10;10.00
820;DHT22;392;48.838;2.322;2023-04-03T16:58:27;13.20;10.30
820;DHT22;392;48.838;2.322;2023-04-03T17:00:54;13.20;10.90
820;DHT22;392;48.838;2.322;2023-04-03T17:03:22;13.30;10.30
820;DHT22;392;48.838;2.322;2023-04-03T17:05:51;13.20;10.30
820;DHT22;392;48.838;2.322;2023-04-03T17:08:18;13.20;10.60
820;DHT22;392;48.838;2.322;2023-04-03T17:10:46;13.20;10.40
820;DHT22;392;48.838;2.322;2023-04-03T17:13:14;13.10;10.70
820;DHT22;392;48.838;2.322;2023-04-03T17:15:42;13.10;10.70
820;DHT22;392;48.838;2.322;2023-04-03T17:18:09;13.00;10.90
820;DHT22;392;48.838;2.322;2023-04-03T17:20:36;12.90;11.10
820;DHT22;392;48.838;2.322;2023-04-03T17:23:04;12.80;11.20